Terminal Aerodrome Forecast
Issued by NWS

Home | Current Version | Previous Version | Text Only | Print | Product List | Glossary On
Versions: 1 2 3 4 5 6 7 8 9 10 11 12
000
FTUS43 KMQT 242333
TAFIWD
TAF
KIWD 242333Z 2500/2524 18008KT P6SM BKN060
     FM250200 15005KT P6SM -SHRA SCT015 OVC040
     FM250600 10005KT 5SM -SHRA BR OVC007
     FM250800 11006KT 3SM -SHRA BR OVC004
     FM252100 26007KT 3SM -SHRA BR OVC006
      AMD LTD TO CLD VIS AND WIND=

USA.gov is the U.S. government's official web portal to all federal, state and local government web resources and services.